createdAt,value
2022-09-12T00:02:24.957Z,95.31
2022-09-12T00:05:28.176Z,95.72
2022-09-12T00:08:30.017Z,96.04
2022-09-12T00:11:32.133Z,96.06
2022-09-12T00:14:34.667Z,96.31
2022-09-12T00:17:37.859Z,96.36
2022-09-12T00:20:47.203Z,96.78
2022-09-12T00:23:49.640Z,97.24
2022-09-12T00:26:51.460Z,97.05
2022-09-12T00:29:53.661Z,97.37
2022-09-12T00:32:58.010Z,97.14
2022-09-12T00:35:59.797Z,97.66
2022-09-12T00:39:01.639Z,97.87
2022-09-12T00:42:03.689Z,98.29
2022-09-12T00:45:06.090Z,98.20
2022-09-12T00:48:22.635Z,97.71
2022-09-12T00:51:24.670Z,97.44
2022-09-12T00:54:30.831Z,97.80
2022-09-12T00:57:45.331Z,98.32
2022-09-12T01:00:47.621Z,98.68
2022-09-12T01:03:49.700Z,98.56
2022-09-12T01:06:53.102Z,98.94
2022-09-12T01:09:55.373Z,98.89
2022-09-12T01:12:57.620Z,99.30
2022-09-12T01:15:59.269Z,99.60
2022-09-12T01:19:16.508Z,99.68
2022-09-12T01:22:23.911Z,99.81
2022-09-12T01:25:37.110Z,99.70
2022-09-12T01:28:44.700Z,100.00
2022-09-12T01:31:54.585Z,100.00
2022-09-12T01:35:12.600Z,99.61
2022-09-12T01:38:29.582Z,99.70
2022-09-12T01:41:50.211Z,99.62
2022-09-12T01:45:15.478Z,99.10
2022-09-12T01:48:24.947Z,98.38
2022-09-12T01:51:36.130Z,98.05
2022-09-12T01:55:03.080Z,98.09
2022-09-12T01:58:13.220Z,97.52
2022-09-12T02:01:20.526Z,97.39
2022-09-12T02:04:24.969Z,97.02
2022-09-12T02:07:42.491Z,97.16
2022-09-12T02:10:59.286Z,97.98
2022-09-12T02:14:12.457Z,97.72
2022-09-12T02:17:21.406Z,98.45
2022-09-12T02:20:47.483Z,98.13
2022-09-12T02:23:57.436Z,97.86
2022-09-12T02:27:12.604Z,97.02
2022-09-12T02:30:16.636Z,97.17
2022-09-12T02:33:31.570Z,96.27
2022-09-12T02:36:50.255Z,95.70
2022-09-12T02:39:55.323Z,93.97
2022-09-12T02:42:57.839Z,95.37
2022-09-12T02:46:00.146Z,95.75
2022-09-12T02:49:02.315Z,94.56
2022-09-12T02:52:04.589Z,94.80
2022-09-12T02:55:08.140Z,93.91
2022-09-12T02:58:16.265Z,94.68
2022-09-12T03:01:26.883Z,94.77
2022-09-12T03:04:43.710Z,96.08
2022-09-12T03:08:03.755Z,94.50
2022-09-12T03:11:31.668Z,95.82
2022-09-12T03:14:47.928Z,97.09
2022-09-12T03:17:56.038Z,97.20
2022-09-12T03:21:05.754Z,97.83
2022-09-12T03:24:39.747Z,98.34
2022-09-12T03:27:51.878Z,99.55
2022-09-12T03:30:55.965Z,98.83
2022-09-12T03:33:59.997Z,99.21
2022-09-12T03:37:02.255Z,99.39
2022-09-12T03:40:08.461Z,99.30
2022-09-12T03:43:10.999Z,99.61
2022-09-12T03:46:13.643Z,100.00
2022-09-12T03:49:15.669Z,100.00
2022-09-12T03:52:17.280Z,100.00
2022-09-12T03:55:19.132Z,100.00
2022-09-12T03:58:21.241Z,100.00
2022-09-12T04:01:23.193Z,100.00
2022-09-12T04:04:25.086Z,100.00
2022-09-12T04:07:27.448Z,100.00
2022-09-12T04:10:29.393Z,100.00
2022-09-12T04:13:31.056Z,100.00
2022-09-12T04:16:33.110Z,100.00
2022-09-12T04:19:34.915Z,100.00
2022-09-12T04:22:36.849Z,100.00
2022-09-12T04:25:38.475Z,100.00
2022-09-12T04:28:41.475Z,100.00
2022-09-12T04:31:43.972Z,98.50
2022-09-12T04:34:47.253Z,97.57
2022-09-12T04:37:48.864Z,96.81
2022-09-12T04:40:50.675Z,97.76
2022-09-12T04:43:55.031Z,97.96
2022-09-12T04:46:57.319Z,99.03
2022-09-12T04:49:58.889Z,99.11
2022-09-12T04:53:00.743Z,98.68
2022-09-12T04:56:04.188Z,97.38
2022-09-12T04:59:06.524Z,97.09
2022-09-12T05:02:08.449Z,96.81
2022-09-12T05:05:11.552Z,96.68
2022-09-12T05:08:13.530Z,96.50
2022-09-12T05:11:24.787Z,96.31
2022-09-12T05:14:28.696Z,95.99
2022-09-12T05:17:30.631Z,96.05
2022-09-12T05:20:34.169Z,95.10
2022-09-12T05:23:36.476Z,94.52
2022-09-12T05:26:38.522Z,91.74
2022-09-12T05:29:40.265Z,91.50
2022-09-12T05:32:41.852Z,90.80
2022-09-12T05:35:51.762Z,89.78
2022-09-12T05:38:54.258Z,91.16
2022-09-12T05:41:56.408Z,91.35
2022-09-12T05:44:58.745Z,90.11
2022-09-12T05:48:00.587Z,90.66
2022-09-12T05:51:06.834Z,89.16
2022-09-12T05:54:11.100Z,87.58
2022-09-12T05:57:12.678Z,88.11
2022-09-12T06:00:15.278Z,88.72
2022-09-12T06:03:17.882Z,88.00
2022-09-12T06:06:21.740Z,87.46
2022-09-12T06:09:25.503Z,87.60
2022-09-12T06:12:30.077Z,85.52
2022-09-12T06:15:32.971Z,83.76
2022-09-12T06:18:35.914Z,83.35
2022-09-12T06:21:47.970Z,82.88
2022-09-12T06:24:49.708Z,81.40
2022-09-12T06:27:56.264Z,80.01
2022-09-12T06:31:06.152Z,79.80
2022-09-12T06:34:10.559Z,77.99
2022-09-12T06:37:12.162Z,76.22
2022-09-12T06:40:16.376Z,75.28
2022-09-12T06:43:18.010Z,75.58
2022-09-12T06:46:20.479Z,75.63
2022-09-12T06:49:22.381Z,73.80
2022-09-12T06:52:24.031Z,72.99
2022-09-12T06:55:27.717Z,69.96
2022-09-12T06:58:30.386Z,68.00
2022-09-12T07:01:32.648Z,66.31
2022-09-12T07:04:36.791Z,63.17
2022-09-12T07:07:38.401Z,62.22
2022-09-12T07:10:39.948Z,60.87
2022-09-12T07:13:43.872Z,60.64
2022-09-12T07:16:45.530Z,58.85
2022-09-12T07:19:47.613Z,57.82
2022-09-12T07:22:50.999Z,57.11
2022-09-12T07:25:54.475Z,54.91
2022-09-12T07:29:12.728Z,53.75
2022-09-12T07:32:19.202Z,49.94
2022-09-12T07:35:21.695Z,46.43
2022-09-12T07:38:23.575Z,46.86
2022-09-12T07:41:28.319Z,46.00
2022-09-12T07:44:30.307Z,45.19
2022-09-12T07:47:31.871Z,46.94
2022-09-12T07:50:33.803Z,45.41
2022-09-12T07:53:38.441Z,44.96
2022-09-12T07:56:40.888Z,43.97
2022-09-12T07:59:52.451Z,43.51
2022-09-12T08:02:55.320Z,41.16
2022-09-12T08:06:06.867Z,40.28
2022-09-12T08:09:09.142Z,38.50
2022-09-12T08:12:10.818Z,34.85
2022-09-12T08:15:12.431Z,36.51
2022-09-12T08:18:14.640Z,36.59
2022-09-12T08:21:22.988Z,35.40
2022-09-12T08:24:25.103Z,35.46
2022-09-12T08:27:26.864Z,33.54
2022-09-12T08:30:29.516Z,33.37
2022-09-12T08:33:35.443Z,32.37
2022-09-12T08:36:37.170Z,32.42
2022-09-12T08:39:38.957Z,33.44
2022-09-12T08:42:49.806Z,33.87
2022-09-12T08:46:17.610Z,33.76
2022-09-12T08:49:27.987Z,32.09
2022-09-12T08:52:39.571Z,30.80
2022-09-12T08:55:54.154Z,28.90
2022-09-12T08:58:56.229Z,29.08
2022-09-12T09:02:01.747Z,28.34
2022-09-12T09:05:08.060Z,28.81
2022-09-12T09:08:16.251Z,26.35
2022-09-12T09:11:32.916Z,25.65
2022-09-12T09:15:05.282Z,25.09
2022-09-12T09:18:30.085Z,22.99
2022-09-12T09:21:41.288Z,24.17
2022-09-12T09:24:51.389Z,24.89
2022-09-12T09:28:03.821Z,25.22
2022-09-12T09:31:12.121Z,22.77
2022-09-12T09:34:20.193Z,22.43
2022-09-12T09:37:38.269Z,22.42
2022-09-12T09:41:04.163Z,21.61
2022-09-12T09:47:12.898Z,21.42
2022-09-12T09:50:17.228Z,22.30
2022-09-12T09:53:40.093Z,21.33
2022-09-12T09:56:43.025Z,22.34
2022-09-12T09:59:44.935Z,23.10
2022-09-12T10:02:59.415Z,24.00
2022-09-12T10:06:07.595Z,26.72
2022-09-12T10:09:15.587Z,30.22
2022-09-12T10:12:35.305Z,31.32
2022-09-12T10:15:38.482Z,31.91
2022-09-12T10:18:42.890Z,30.98
2022-09-12T10:21:52.735Z,33.58
2022-09-12T10:24:59.042Z,34.07
2022-09-12T10:28:21.521Z,36.20
2022-09-12T10:31:32.687Z,36.12
2022-09-12T10:34:38.000Z,36.63
2022-09-12T10:37:40.386Z,36.47
2022-09-12T10:40:43.960Z,37.42
2022-09-12T10:43:46.180Z,36.69
2022-09-12T10:46:48.310Z,36.53
2022-09-12T10:49:51.561Z,36.57
2022-09-12T10:52:54.975Z,36.25
2022-09-12T10:56:05.615Z,36.50
2022-09-12T10:59:45.268Z,37.84
2022-09-12T11:03:13.653Z,35.12
2022-09-12T11:06:24.249Z,35.41
2022-09-12T11:09:37.822Z,36.05
2022-09-12T11:12:56.559Z,36.81
2022-09-12T11:16:07.220Z,36.54
2022-09-12T11:19:46.014Z,36.88
2022-09-12T11:23:31.362Z,36.41
2022-09-12T11:26:41.936Z,34.08
2022-09-12T11:29:52.125Z,34.95
2022-09-12T11:33:29.048Z,34.34
2022-09-12T11:36:44.894Z,35.89
2022-09-12T11:39:55.386Z,36.57
2022-09-12T11:43:07.745Z,37.06
2022-09-12T11:46:12.600Z,37.64
2022-09-12T11:49:24.224Z,39.00
2022-09-12T11:52:34.198Z,38.89
2022-09-12T11:56:02.477Z,38.36
2022-09-12T11:59:14.092Z,39.03
2022-09-12T12:02:27.904Z,39.87
2022-09-12T12:05:52.236Z,40.98
2022-09-12T12:08:54.292Z,40.03
2022-09-12T12:11:58.577Z,40.94
2022-09-12T12:15:01.361Z,41.55
2022-09-12T12:18:05.180Z,41.36
2022-09-12T12:21:37.599Z,41.94
2022-09-12T12:25:12.535Z,41.81
2022-09-12T12:28:43.179Z,42.22
2022-09-12T12:32:03.574Z,42.32
2022-09-12T12:35:42.253Z,42.97
2022-09-12T12:38:44.537Z,43.84
2022-09-12T12:41:46.587Z,43.02
2022-09-12T12:44:51.779Z,42.71
2022-09-12T12:48:10.165Z,42.16
2022-09-12T12:51:27.321Z,40.63
2022-09-12T12:54:41.118Z,40.23
2022-09-12T12:57:54.373Z,36.16
2022-09-12T13:01:23.165Z,35.90
2022-09-12T13:04:32.550Z,34.94
2022-09-12T13:07:38.976Z,35.27
2022-09-12T13:10:53.140Z,36.72
2022-09-12T13:14:00.951Z,37.20
2022-09-12T13:17:07.812Z,39.26
2022-09-12T13:20:30.115Z,39.44
2022-09-12T13:23:33.068Z,37.82
2022-09-12T13:26:43.117Z,35.69
2022-09-12T13:29:44.998Z,38.00
2022-09-12T13:32:46.632Z,41.41
2022-09-12T13:36:06.636Z,44.23
2022-09-12T13:39:37.426Z,47.46
2022-09-12T13:42:48.851Z,48.74
2022-09-12T13:45:52.875Z,44.27
2022-09-12T13:48:54.476Z,39.84
2022-09-12T13:52:15.775Z,41.31
2022-09-12T13:55:40.556Z,40.55
2022-09-12T13:58:56.836Z,44.69
2022-09-12T14:01:58.462Z,45.75
2022-09-12T14:05:12.263Z,45.01
2022-09-12T14:08:17.384Z,45.19
2022-09-12T14:11:34.112Z,45.00
2022-09-12T14:14:42.406Z,46.06
2022-09-12T14:17:51.982Z,46.49
2022-09-12T14:20:57.338Z,46.21
2022-09-12T14:24:00.872Z,45.22
2022-09-12T14:27:02.831Z,44.48
2022-09-12T14:30:27.805Z,45.14
2022-09-12T14:33:33.084Z,45.45
2022-09-12T14:36:39.769Z,45.10
2022-09-12T14:39:44.904Z,43.74
2022-09-12T14:42:51.623Z,42.83
2022-09-12T14:46:02.491Z,41.30
2022-09-12T14:49:09.306Z,35.83
2022-09-12T14:52:29.748Z,34.46
2022-09-12T14:55:34.006Z,34.34
2022-09-12T14:58:36.898Z,33.80
2022-09-12T15:01:38.995Z,33.19
2022-09-12T15:04:43.259Z,31.81
2022-09-12T15:07:53.702Z,30.41
2022-09-12T15:10:55.855Z,30.30
2022-09-12T15:13:57.683Z,30.53
2022-09-12T15:16:59.416Z,30.85
2022-09-12T15:20:01.333Z,32.15
2022-09-12T15:23:03.701Z,33.44
2022-09-12T15:26:06.442Z,32.39
2022-09-12T15:29:08.616Z,32.98
2022-09-12T15:32:22.697Z,34.31
2022-09-12T15:35:33.800Z,34.85
2022-09-12T15:38:35.629Z,35.11
2022-09-12T15:41:38.393Z,35.98
2022-09-12T15:44:40.759Z,36.33
2022-09-12T15:47:42.577Z,36.34
2022-09-12T15:50:44.700Z,36.61
2022-09-12T15:53:48.398Z,36.67
2022-09-12T15:56:50.168Z,37.42
2022-09-12T15:59:51.964Z,37.79
2022-09-12T16:02:54.675Z,38.15
2022-09-12T16:06:01.917Z,38.36
2022-09-12T16:09:03.527Z,38.83
2022-09-12T16:12:05.207Z,39.28
2022-09-12T16:15:07.478Z,39.89
2022-09-12T16:18:09.639Z,39.80
2022-09-12T16:21:15.317Z,40.31
2022-09-12T16:24:17.562Z,40.84
2022-09-12T16:27:19.676Z,41.12
2022-09-12T16:30:21.738Z,41.52
2022-09-12T16:33:24.169Z,42.23
2022-09-12T16:36:25.828Z,42.05
2022-09-12T16:39:27.415Z,42.64
2022-09-12T16:42:28.999Z,42.66
2022-09-12T16:45:30.907Z,43.05
2022-09-12T16:48:33.806Z,42.85
2022-09-12T16:51:38.604Z,42.79
2022-09-12T16:54:40.869Z,42.64
2022-09-12T16:57:42.533Z,42.78
2022-09-12T17:00:44.131Z,43.40
2022-09-12T17:03:46.056Z,43.84
2022-09-12T17:06:47.793Z,44.23
2022-09-12T17:09:49.799Z,44.30
2022-09-12T17:12:51.485Z,44.21
2022-09-12T17:15:53.178Z,44.74
2022-09-12T17:18:55.437Z,44.90
2022-09-12T17:21:57.756Z,45.05
2022-09-12T17:24:59.395Z,45.38
2022-09-12T17:28:01.229Z,45.32
2022-09-12T17:31:07.258Z,45.84
2022-09-12T17:34:09.929Z,45.97
2022-09-12T17:37:11.862Z,46.05
2022-09-12T17:40:13.987Z,46.32
2022-09-12T17:43:16.376Z,46.84
2022-09-12T17:46:19.948Z,46.86
2022-09-12T17:49:22.321Z,46.69
2022-09-12T17:52:24.374Z,46.91
2022-09-12T17:55:26.710Z,47.33
2022-09-12T17:58:28.380Z,47.16
2022-09-12T18:01:49.498Z,47.21
2022-09-12T18:04:51.143Z,47.32
2022-09-12T18:07:53.097Z,47.69
2022-09-12T18:11:03.178Z,47.66
2022-09-12T18:14:05.392Z,47.95
2022-09-12T18:17:09.025Z,48.07
2022-09-12T18:20:10.912Z,48.17
2022-09-12T18:23:13.049Z,48.31
2022-09-12T18:26:15.208Z,48.63
2022-09-12T18:29:17.735Z,48.53
2022-09-12T18:32:19.735Z,48.55
2022-09-12T18:35:21.793Z,48.42
2022-09-12T18:38:23.822Z,48.40
2022-09-12T18:41:26.535Z,48.32
2022-09-12T18:44:28.713Z,48.64
2022-09-12T18:47:30.691Z,48.92
2022-09-12T18:50:33.709Z,49.07
2022-09-12T18:53:37.476Z,49.42
2022-09-12T18:56:41.347Z,49.97
2022-09-12T18:59:43.634Z,50.06
2022-09-12T19:02:45.792Z,50.24
2022-09-12T19:05:48.038Z,50.36
2022-09-12T19:08:52.140Z,50.75
2022-09-12T19:11:54.212Z,50.87
2022-09-12T19:14:56.248Z,50.50
2022-09-12T19:17:58.486Z,50.86
2022-09-12T19:21:01.831Z,50.97
2022-09-12T19:24:11.636Z,51.01
2022-09-12T19:27:13.970Z,51.20
2022-09-12T19:30:15.990Z,51.03
2022-09-12T19:33:18.797Z,51.49
2022-09-12T19:36:43.765Z,51.33
2022-09-12T19:39:46.155Z,51.49
2022-09-12T19:42:48.106Z,52.13
2022-09-12T19:45:49.976Z,52.51
2022-09-12T19:48:52.947Z,52.38
2022-09-12T19:51:55.059Z,52.92
2022-09-12T19:54:56.664Z,53.28
2022-09-12T19:57:58.259Z,52.80
2022-09-12T20:01:21.372Z,53.28
2022-09-12T20:04:23.093Z,53.22
2022-09-12T20:07:25.113Z,53.22
2022-09-12T20:10:27.301Z,53.32
2022-09-12T20:13:28.976Z,53.74
2022-09-12T20:16:31.153Z,54.17
2022-09-12T20:19:33.453Z,55.13
2022-09-12T20:22:39.409Z,55.89
2022-09-12T20:25:42.134Z,55.73
2022-09-12T20:28:44.027Z,56.01
2022-09-12T20:31:46.089Z,56.42
2022-09-12T20:34:48.149Z,57.75
2022-09-12T20:37:50.221Z,56.77
2022-09-12T20:40:51.960Z,56.05
2022-09-12T20:43:55.535Z,56.77
2022-09-12T20:46:57.411Z,56.35
2022-09-12T20:49:59.312Z,56.56
2022-09-12T20:53:01.724Z,56.98
2022-09-12T20:56:05.323Z,56.95
2022-09-12T20:59:07.037Z,56.42
2022-09-12T21:02:15.948Z,56.53
2022-09-12T21:05:17.784Z,56.29
2022-09-12T21:08:19.610Z,57.03
2022-09-12T21:11:21.220Z,57.24
2022-09-12T21:14:23.052Z,58.22
2022-09-12T21:17:24.655Z,58.23
2022-09-12T21:20:26.480Z,58.10
2022-09-12T21:23:29.054Z,58.28
2022-09-12T21:26:31.435Z,59.35
2022-09-12T21:29:33.452Z,60.11
2022-09-12T21:32:36.017Z,60.37
2022-09-12T21:35:37.927Z,60.14
2022-09-12T21:38:39.844Z,60.18
2022-09-12T21:41:41.612Z,60.43
2022-09-12T21:44:43.434Z,60.74
2022-09-12T21:47:46.021Z,60.85
2022-09-12T21:50:51.035Z,61.08
2022-09-12T21:53:52.702Z,60.88
2022-09-12T21:56:54.265Z,60.64
2022-09-12T21:59:55.848Z,60.15
2022-09-12T22:02:59.123Z,60.74
2022-09-12T22:06:04.039Z,60.49
2022-09-12T22:09:05.907Z,60.85
2022-09-12T22:12:08.741Z,60.18
2022-09-12T22:15:36.303Z,59.43
2022-09-12T22:18:33.970Z,62.79
2022-09-12T22:21:55.493Z,65.35
2022-09-12T22:24:57.055Z,66.28
2022-09-12T22:27:58.920Z,68.84
2022-09-12T22:31:01.394Z,70.38
2022-09-12T22:34:03.846Z,71.97
2022-09-12T22:37:05.852Z,70.99
2022-09-12T22:40:08.017Z,70.93
2022-09-12T22:43:09.659Z,72.03
2022-09-12T22:46:14.845Z,73.84
2022-09-12T22:49:16.493Z,72.17
2022-09-12T22:52:18.363Z,72.78
2022-09-12T22:55:19.926Z,73.61
2022-09-12T22:58:21.872Z,74.59
2022-09-12T23:01:24.166Z,73.63
2022-09-12T23:04:25.887Z,72.27
2022-09-12T23:07:27.707Z,74.58
2022-09-12T23:10:29.426Z,73.20
2022-09-12T23:13:32.508Z,74.35
2022-09-12T23:16:34.203Z,73.95
2022-09-12T23:19:36.116Z,75.12
2022-09-12T23:22:38.351Z,73.27
2022-09-12T23:25:39.941Z,74.12
2022-09-12T23:28:47.839Z,76.12
2022-09-12T23:31:49.786Z,76.08
2022-09-12T23:34:52.803Z,77.19
2022-09-12T23:37:54.464Z,78.38
2022-09-12T23:40:56.369Z,78.57
2022-09-12T23:43:58.109Z,77.68
2022-09-12T23:47:00.034Z,77.22
2022-09-12T23:50:01.730Z,75.70
2022-09-12T23:53:03.692Z,75.16
2022-09-12T23:56:06.275Z,75.56
2022-09-12T23:59:08.334Z,76.28
